sensor_id;sensor_type;location;lat;lon;timestamp;P1;durP1;ratioP1;P2;durP2;ratioP2
17520;SDS011;8878;-33.370;-70.552;2023-04-30T00:02:21;1.07;;;0.50;;
17520;SDS011;8878;-33.370;-70.552;2023-04-30T00:04:50;0.60;;;0.60;;
17520;SDS011;8878;-33.370;-70.552;2023-04-30T00:07:21;3.25;;;1.02;;
17520;SDS011;8878;-33.370;-70.552;2023-04-30T00:09:50;0.80;;;0.80;;
17520;SDS011;8878;-33.370;-70.552;2023-04-30T00:12:21;0.63;;;0.63;;
17520;SDS011;8878;-33.370;-70.552;2023-04-30T00:14:50;1.17;;;1.07;;
17520;SDS011;8878;-33.370;-70.552;2023-04-30T00:17:21;1.57;;;0.83;;
17520;SDS011;8878;-33.370;-70.552;2023-04-30T00:19:51;2.53;;;1.33;;
17520;SDS011;8878;-33.370;-70.552;2023-04-30T00:22:21;0.65;;;0.65;;
17520;SDS011;8878;-33.370;-70.552;2023-04-30T00:24:50;2.05;;;0.80;;
17520;SDS011;8878;-33.370;-70.552;2023-04-30T00:27:21;0.98;;;0.88;;
17520;SDS011;8878;-33.370;-70.552;2023-04-30T00:29:50;1.50;;;0.90;;
17520;SDS011;8878;-33.370;-70.552;2023-04-30T00:32:20;2.27;;;0.90;;
17520;SDS011;8878;-33.370;-70.552;2023-04-30T00:34:49;3.20;;;0.80;;
17520;SDS011;8878;-33.370;-70.552;2023-04-30T00:37:19;1.73;;;0.77;;
17520;SDS011;8878;-33.370;-70.552;2023-04-30T00:39:48;1.07;;;0.60;;
17520;SDS011;8878;-33.370;-70.552;2023-04-30T00:42:18;0.75;;;0.75;;
17520;SDS011;8878;-33.370;-70.552;2023-04-30T00:44:49;1.33;;;1.20;;
17520;SDS011;8878;-33.370;-70.552;2023-04-30T00:47:18;0.83;;;0.80;;
17520;SDS011;8878;-33.370;-70.552;2023-04-30T00:49:49;0.90;;;0.77;;
17520;SDS011;8878;-33.370;-70.552;2023-04-30T00:52:19;0.63;;;0.63;;
17520;SDS011;8878;-33.370;-70.552;2023-04-30T00:54:49;0.93;;;0.68;;
17520;SDS011;8878;-33.370;-70.552;2023-04-30T00:57:19;0.93;;;0.90;;
17520;SDS011;8878;-33.370;-70.552;2023-04-30T00:59:51;0.80;;;0.67;;
17520;SDS011;8878;-33.370;-70.552;2023-04-30T01:02:21;0.80;;;0.80;;
17520;SDS011;8878;-33.370;-70.552;2023-04-30T01:04:52;0.83;;;0.80;;
17520;SDS011;8878;-33.370;-70.552;2023-04-30T01:07:23;0.57;;;0.57;;
17520;SDS011;8878;-33.370;-70.552;2023-04-30T01:09:54;0.30;;;0.30;;
17520;SDS011;8878;-33.370;-70.552;2023-04-30T01:12:25;0.83;;;0.50;;
17520;SDS011;8878;-33.370;-70.552;2023-04-30T01:15:06;1.27;;;0.60;;
17520;SDS011;8878;-33.370;-70.552;2023-04-30T01:17:44;0.40;;;0.40;;
17520;SDS011;8878;-33.370;-70.552;2023-04-30T01:20:22;0.30;;;0.30;;
17520;SDS011;8878;-33.370;-70.552;2023-04-30T01:22:54;0.50;;;0.20;;
17520;SDS011;8878;-33.370;-70.552;2023-04-30T01:25:41;0.63;;;0.63;;
17520;SDS011;8878;-33.370;-70.552;2023-04-30T01:28:21;0.40;;;0.40;;
17520;SDS011;8878;-33.370;-70.552;2023-04-30T01:30:51;0.30;;;0.30;;
17520;SDS011;8878;-33.370;-70.552;2023-04-30T01:33:20;0.20;;;0.20;;
17520;SDS011;8878;-33.370;-70.552;2023-04-30T01:35:57;0.55;;;0.55;;
17520;SDS011;8878;-33.370;-70.552;2023-04-30T01:38:45;0.97;;;0.40;;
17520;SDS011;8878;-33.370;-70.552;2023-04-30T01:41:34;0.27;;;0.27;;
17520;SDS011;8878;-33.370;-70.552;2023-04-30T01:44:15;0.40;;;0.40;;
17520;SDS011;8878;-33.370;-70.552;2023-04-30T01:46:54;0.20;;;0.20;;
17520;SDS011;8878;-33.370;-70.552;2023-04-30T01:49:31;2.50;;;0.70;;
17520;SDS011;8878;-33.370;-70.552;2023-04-30T01:52:17;0.37;;;0.37;;
17520;SDS011;8878;-33.370;-70.552;2023-04-30T01:54:51;0.70;;;0.63;;
17520;SDS011;8878;-33.370;-70.552;2023-04-30T01:57:27;1.13;;;0.40;;
17520;SDS011;8878;-33.370;-70.552;2023-04-30T02:00:01;0.70;;;0.43;;
17520;SDS011;8878;-33.370;-70.552;2023-04-30T02:02:31;0.50;;;0.50;;
17520;SDS011;8878;-33.370;-70.552;2023-04-30T02:05:01;0.43;;;0.43;;
17520;SDS011;8878;-33.370;-70.552;2023-04-30T02:07:36;0.50;;;0.50;;
17520;SDS011;8878;-33.370;-70.552;2023-04-30T02:10:07;0.40;;;0.40;;
17520;SDS011;8878;-33.370;-70.552;2023-04-30T02:12:38;0.77;;;0.30;;
17520;SDS011;8878;-33.370;-70.552;2023-04-30T02:15:10;0.57;;;0.57;;
17520;SDS011;8878;-33.370;-70.552;2023-04-30T02:17:40;0.73;;;0.70;;
17520;SDS011;8878;-33.370;-70.552;2023-04-30T02:20:09;0.67;;;0.50;;
17520;SDS011;8878;-33.370;-70.552;2023-04-30T02:22:39;0.70;;;0.70;;
17520;SDS011;8878;-33.370;-70.552;2023-04-30T02:25:09;0.90;;;0.90;;
17520;SDS011;8878;-33.370;-70.552;2023-04-30T02:27:39;1.60;;;0.90;;
17520;SDS011;8878;-33.370;-70.552;2023-04-30T02:30:10;1.77;;;0.87;;
17520;SDS011;8878;-33.370;-70.552;2023-04-30T02:32:40;1.70;;;1.00;;
17520;SDS011;8878;-33.370;-70.552;2023-04-30T02:35:09;0.83;;;0.80;;
17520;SDS011;8878;-33.370;-70.552;2023-04-30T02:37:39;0.57;;;0.40;;
17520;SDS011;8878;-33.370;-70.552;2023-04-30T02:40:08;0.30;;;0.30;;
17520;SDS011;8878;-33.370;-70.552;2023-04-30T02:42:38;0.50;;;0.50;;
17520;SDS011;8878;-33.370;-70.552;2023-04-30T02:45:08;1.77;;;0.63;;
17520;SDS011;8878;-33.370;-70.552;2023-04-30T02:47:39;0.53;;;0.53;;
17520;SDS011;8878;-33.370;-70.552;2023-04-30T02:50:09;0.33;;;0.33;;
17520;SDS011;8878;-33.370;-70.552;2023-04-30T02:52:38;1.03;;;0.77;;
17520;SDS011;8878;-33.370;-70.552;2023-04-30T02:55:08;0.50;;;0.50;;
17520;SDS011;8878;-33.370;-70.552;2023-04-30T02:57:38;0.13;;;0.13;;
17520;SDS011;8878;-33.370;-70.552;2023-04-30T03:00:07;0.50;;;0.50;;
17520;SDS011;8878;-33.370;-70.552;2023-04-30T03:02:39;0.30;;;0.30;;
17520;SDS011;8878;-33.370;-70.552;2023-04-30T03:05:09;0.50;;;0.50;;
17520;SDS011;8878;-33.370;-70.552;2023-04-30T03:07:40;3.27;;;0.90;;
17520;SDS011;8878;-33.370;-70.552;2023-04-30T03:10:10;0.67;;;0.60;;
17520;SDS011;8878;-33.370;-70.552;2023-04-30T03:12:39;0.30;;;0.30;;
17520;SDS011;8878;-33.370;-70.552;2023-04-30T03:15:09;0.63;;;0.60;;
17520;SDS011;8878;-33.370;-70.552;2023-04-30T03:17:40;0.50;;;0.50;;
17520;SDS011;8878;-33.370;-70.552;2023-04-30T03:20:10;6.10;;;0.97;;
17520;SDS011;8878;-33.370;-70.552;2023-04-30T03:22:40;2.37;;;0.80;;
17520;SDS011;8878;-33.370;-70.552;2023-04-30T03:25:09;2.43;;;1.17;;
17520;SDS011;8878;-33.370;-70.552;2023-04-30T03:27:39;0.87;;;0.70;;
17520;SDS011;8878;-33.370;-70.552;2023-04-30T03:30:09;2.47;;;1.00;;
17520;SDS011;8878;-33.370;-70.552;2023-04-30T03:32:40;0.20;;;0.20;;
17520;SDS011;8878;-33.370;-70.552;2023-04-30T03:35:09;0.77;;;0.50;;
17520;SDS011;8878;-33.370;-70.552;2023-04-30T03:37:39;0.60;;;0.53;;
17520;SDS011;8878;-33.370;-70.552;2023-04-30T03:40:08;2.93;;;0.67;;
17520;SDS011;8878;-33.370;-70.552;2023-04-30T03:42:38;1.10;;;0.40;;
17520;SDS011;8878;-33.370;-70.552;2023-04-30T03:45:07;0.47;;;0.47;;
17520;SDS011;8878;-33.370;-70.552;2023-04-30T03:47:37;0.47;;;0.47;;
17520;SDS011;8878;-33.370;-70.552;2023-04-30T03:50:09;0.20;;;0.20;;
17520;SDS011;8878;-33.370;-70.552;2023-04-30T03:52:39;0.70;;;0.70;;
17520;SDS011;8878;-33.370;-70.552;2023-04-30T03:55:08;5.30;;;0.83;;
17520;SDS011;8878;-33.370;-70.552;2023-04-30T03:57:38;0.43;;;0.27;;
17520;SDS011;8878;-33.370;-70.552;2023-04-30T04:00:08;0.50;;;0.50;;
17520;SDS011;8878;-33.370;-70.552;2023-04-30T04:02:40;0.70;;;0.60;;
17520;SDS011;8878;-33.370;-70.552;2023-04-30T04:05:10;0.33;;;0.33;;
17520;SDS011;8878;-33.370;-70.552;2023-04-30T04:07:39;1.20;;;0.30;;
17520;SDS011;8878;-33.370;-70.552;2023-04-30T04:10:09;5.60;;;0.67;;
17520;SDS011;8878;-33.370;-70.552;2023-04-30T04:12:38;0.67;;;0.30;;
17520;SDS011;8878;-33.370;-70.552;2023-04-30T04:15:09;0.33;;;0.33;;
17520;SDS011;8878;-33.370;-70.552;2023-04-30T04:17:40;3.37;;;0.60;;
17520;SDS011;8878;-33.370;-70.552;2023-04-30T04:20:10;1.50;;;0.60;;
17520;SDS011;8878;-33.370;-70.552;2023-04-30T04:22:41;1.07;;;0.70;;
17520;SDS011;8878;-33.370;-70.552;2023-04-30T04:25:10;4.23;;;0.80;;
17520;SDS011;8878;-33.370;-70.552;2023-04-30T04:27:40;0.30;;;0.30;;
17520;SDS011;8878;-33.370;-70.552;2023-04-30T04:30:10;0.40;;;0.30;;
17520;SDS011;8878;-33.370;-70.552;2023-04-30T04:32:42;5.63;;;0.70;;
17520;SDS011;8878;-33.370;-70.552;2023-04-30T04:35:15;0.60;;;0.50;;
17520;SDS011;8878;-33.370;-70.552;2023-04-30T04:37:45;0.27;;;0.27;;
17520;SDS011;8878;-33.370;-70.552;2023-04-30T04:40:15;0.30;;;0.30;;
17520;SDS011;8878;-33.370;-70.552;2023-04-30T04:42:44;0.47;;;0.43;;
17520;SDS011;8878;-33.370;-70.552;2023-04-30T04:45:18;0.53;;;0.30;;
17520;SDS011;8878;-33.370;-70.552;2023-04-30T04:47:49;1.23;;;0.37;;
17520;SDS011;8878;-33.370;-70.552;2023-04-30T04:50:18;1.83;;;0.37;;
17520;SDS011;8878;-33.370;-70.552;2023-04-30T04:52:48;0.30;;;0.30;;
17520;SDS011;8878;-33.370;-70.552;2023-04-30T04:55:17;0.47;;;0.27;;
17520;SDS011;8878;-33.370;-70.552;2023-04-30T04:57:46;3.00;;;0.43;;
17520;SDS011;8878;-33.370;-70.552;2023-04-30T05:00:17;2.13;;;0.57;;
17520;SDS011;8878;-33.370;-70.552;2023-04-30T05:02:49;0.53;;;0.30;;
17520;SDS011;8878;-33.370;-70.552;2023-04-30T05:05:19;5.53;;;0.63;;
17520;SDS011;8878;-33.370;-70.552;2023-04-30T05:07:49;2.00;;;0.50;;
17520;SDS011;8878;-33.370;-70.552;2023-04-30T05:10:19;0.93;;;0.50;;
17520;SDS011;8878;-33.370;-70.552;2023-04-30T05:12:49;0.57;;;0.57;;
17520;SDS011;8878;-33.370;-70.552;2023-04-30T05:15:18;0.40;;;0.40;;
17520;SDS011;8878;-33.370;-70.552;2023-04-30T05:17:49;1.17;;;0.57;;
17520;SDS011;8878;-33.370;-70.552;2023-04-30T05:20:20;2.70;;;0.50;;
17520;SDS011;8878;-33.370;-70.552;2023-04-30T05:22:49;0.13;;;0.13;;
17520;SDS011;8878;-33.370;-70.552;2023-04-30T05:25:18;0.10;;;0.10;;
17520;SDS011;8878;-33.370;-70.552;2023-04-30T05:27:48;0.60;;;0.40;;
17520;SDS011;8878;-33.370;-70.552;2023-04-30T05:30:17;1.40;;;0.53;;
17520;SDS011;8878;-33.370;-70.552;2023-04-30T05:32:49;0.93;;;0.60;;
17520;SDS011;8878;-33.370;-70.552;2023-04-30T05:35:19;0.37;;;0.37;;
17520;SDS011;8878;-33.370;-70.552;2023-04-30T05:37:49;0.70;;;0.63;;
17520;SDS011;8878;-33.370;-70.552;2023-04-30T05:40:19;0.20;;;0.17;;
17520;SDS011;8878;-33.370;-70.552;2023-04-30T05:42:48;1.37;;;0.60;;
17520;SDS011;8878;-33.370;-70.552;2023-04-30T05:45:17;0.20;;;0.20;;
17520;SDS011;8878;-33.370;-70.552;2023-04-30T05:47:47;3.23;;;0.97;;
17520;SDS011;8878;-33.370;-70.552;2023-04-30T05:50:18;0.50;;;0.27;;
17520;SDS011;8878;-33.370;-70.552;2023-04-30T05:52:48;1.43;;;0.67;;
17520;SDS011;8878;-33.370;-70.552;2023-04-30T05:55:17;0.53;;;0.30;;
17520;SDS011;8878;-33.370;-70.552;2023-04-30T05:57:48;1.80;;;0.50;;
17520;SDS011;8878;-33.370;-70.552;2023-04-30T06:00:18;0.10;;;0.10;;
17520;SDS011;8878;-33.370;-70.552;2023-04-30T06:02:49;1.47;;;0.30;;
17520;SDS011;8878;-33.370;-70.552;2023-04-30T06:05:19;0.30;;;0.20;;
17520;SDS011;8878;-33.370;-70.552;2023-04-30T06:07:48;2.47;;;0.23;;
17520;SDS011;8878;-33.370;-70.552;2023-04-30T06:10:18;0.20;;;0.17;;
17520;SDS011;8878;-33.370;-70.552;2023-04-30T06:12:47;0.50;;;0.50;;
17520;SDS011;8878;-33.370;-70.552;2023-04-30T06:15:17;2.83;;;0.53;;
17520;SDS011;8878;-33.370;-70.552;2023-04-30T06:17:46;1.23;;;0.40;;
17520;SDS011;8878;-33.370;-70.552;2023-04-30T06:20:17;1.07;;;0.20;;
17520;SDS011;8878;-33.370;-70.552;2023-04-30T06:22:47;0.23;;;0.20;;
17520;SDS011;8878;-33.370;-70.552;2023-04-30T06:25:16;1.13;;;0.33;;
17520;SDS011;8878;-33.370;-70.552;2023-04-30T06:27:45;0.37;;;0.37;;
17520;SDS011;8878;-33.370;-70.552;2023-04-30T06:30:16;0.43;;;0.43;;
17520;SDS011;8878;-33.370;-70.552;2023-04-30T06:32:45;0.10;;;0.10;;
17520;SDS011;8878;-33.370;-70.552;2023-04-30T06:35:17;0.93;;;0.40;;
17520;SDS011;8878;-33.370;-70.552;2023-04-30T06:37:46;5.43;;;0.27;;
17520;SDS011;8878;-33.370;-70.552;2023-04-30T06:40:15;0.30;;;0.30;;
17520;SDS011;8878;-33.370;-70.552;2023-04-30T06:42:45;0.27;;;0.13;;
17520;SDS011;8878;-33.370;-70.552;2023-04-30T06:45:14;0.73;;;0.43;;
17520;SDS011;8878;-33.370;-70.552;2023-04-30T06:47:44;0.20;;;0.20;;
17520;SDS011;8878;-33.370;-70.552;2023-04-30T06:50:15;0.50;;;0.50;;
17520;SDS011;8878;-33.370;-70.552;2023-04-30T06:52:46;0.20;;;0.13;;
17520;SDS011;8878;-33.370;-70.552;2023-04-30T06:55:16;1.27;;;0.50;;
17520;SDS011;8878;-33.370;-70.552;2023-04-30T06:57:47;0.27;;;0.27;;
17520;SDS011;8878;-33.370;-70.552;2023-04-30T07:00:16;0.40;;;0.40;;
17520;SDS011;8878;-33.370;-70.552;2023-04-30T07:02:45;0.60;;;0.60;;
17520;SDS011;8878;-33.370;-70.552;2023-04-30T07:05:18;0.60;;;0.20;;
17520;SDS011;8878;-33.370;-70.552;2023-04-30T07:07:48;0.33;;;0.33;;
17520;SDS011;8878;-33.370;-70.552;2023-04-30T07:10:17;0.33;;;0.30;;
17520;SDS011;8878;-33.370;-70.552;2023-04-30T07:12:47;2.47;;;0.50;;
17520;SDS011;8878;-33.370;-70.552;2023-04-30T07:15:16;1.93;;;0.60;;
17520;SDS011;8878;-33.370;-70.552;2023-04-30T07:17:45;0.30;;;0.30;;
17520;SDS011;8878;-33.370;-70.552;2023-04-30T07:20:15;0.63;;;0.37;;
17520;SDS011;8878;-33.370;-70.552;2023-04-30T07:22:46;0.77;;;0.50;;
17520;SDS011;8878;-33.370;-70.552;2023-04-30T07:25:15;1.20;;;0.73;;
17520;SDS011;8878;-33.370;-70.552;2023-04-30T07:27:45;0.53;;;0.53;;
17520;SDS011;8878;-33.370;-70.552;2023-04-30T07:30:14;0.37;;;0.37;;
17520;SDS011;8878;-33.370;-70.552;2023-04-30T07:32:44;0.40;;;0.40;;
17520;SDS011;8878;-33.370;-70.552;2023-04-30T07:35:14;2.10;;;0.97;;
17520;SDS011;8878;-33.370;-70.552;2023-04-30T07:37:45;0.90;;;0.40;;
17520;SDS011;8878;-33.370;-70.552;2023-04-30T07:40:14;1.60;;;0.40;;
17520;SDS011;8878;-33.370;-70.552;2023-04-30T07:42:44;2.23;;;0.60;;
17520;SDS011;8878;-33.370;-70.552;2023-04-30T07:45:13;1.97;;;0.70;;
17520;SDS011;8878;-33.370;-70.552;2023-04-30T07:47:43;4.67;;;0.60;;
17520;SDS011;8878;-33.370;-70.552;2023-04-30T07:50:12;0.57;;;0.43;;
17520;SDS011;8878;-33.370;-70.552;2023-04-30T07:52:42;4.13;;;0.50;;
17520;SDS011;8878;-33.370;-70.552;2023-04-30T07:55:15;1.30;;;0.53;;
17520;SDS011;8878;-33.370;-70.552;2023-04-30T07:57:44;0.73;;;0.67;;
17520;SDS011;8878;-33.370;-70.552;2023-04-30T08:00:14;0.73;;;0.63;;
17520;SDS011;8878;-33.370;-70.552;2023-04-30T08:02:43;0.67;;;0.40;;
17520;SDS011;8878;-33.370;-70.552;2023-04-30T08:05:13;0.40;;;0.37;;
17520;SDS011;8878;-33.370;-70.552;2023-04-30T08:07:42;2.83;;;0.77;;
17520;SDS011;8878;-33.370;-70.552;2023-04-30T08:10:13;0.40;;;0.30;;
17520;SDS011;8878;-33.370;-70.552;2023-04-30T08:12:43;0.67;;;0.67;;
17520;SDS011;8878;-33.370;-70.552;2023-04-30T08:15:12;0.53;;;0.30;;
17520;SDS011;8878;-33.370;-70.552;2023-04-30T08:17:41;1.17;;;0.77;;
17520;SDS011;8878;-33.370;-70.552;2023-04-30T08:20:11;1.23;;;0.57;;
17520;SDS011;8878;-33.370;-70.552;2023-04-30T08:22:41;0.10;;;0.10;;
17520;SDS011;8878;-33.370;-70.552;2023-04-30T08:25:12;0.90;;;0.33;;
17520;SDS011;8878;-33.370;-70.552;2023-04-30T08:27:42;0.30;;;0.30;;
17520;SDS011;8878;-33.370;-70.552;2023-04-30T08:30:11;0.33;;;0.27;;
17520;SDS011;8878;-33.370;-70.552;2023-04-30T08:32:40;0.53;;;0.47;;
17520;SDS011;8878;-33.370;-70.552;2023-04-30T08:35:10;0.83;;;0.43;;
17520;SDS011;8878;-33.370;-70.552;2023-04-30T08:37:41;0.20;;;0.20;;
17520;SDS011;8878;-33.370;-70.552;2023-04-30T08:40:13;1.33;;;0.40;;
17520;SDS011;8878;-33.370;-70.552;2023-04-30T08:42:44;1.90;;;0.20;;
17520;SDS011;8878;-33.370;-70.552;2023-04-30T08:45:17;1.00;;;0.50;;
17520;SDS011;8878;-33.370;-70.552;2023-04-30T08:47:47;1.57;;;0.50;;
17520;SDS011;8878;-33.370;-70.552;2023-04-30T08:50:17;0.37;;;0.37;;
17520;SDS011;8878;-33.370;-70.552;2023-04-30T08:52:46;0.83;;;0.60;;
17520;SDS011;8878;-33.370;-70.552;2023-04-30T08:55:18;0.33;;;0.33;;
17520;SDS011;8878;-33.370;-70.552;2023-04-30T08:57:47;0.70;;;0.50;;
17520;SDS011;8878;-33.370;-70.552;2023-04-30T09:00:17;0.33;;;0.33;;
17520;SDS011;8878;-33.370;-70.552;2023-04-30T09:02:48;0.40;;;0.40;;
17520;SDS011;8878;-33.370;-70.552;2023-04-30T09:05:17;0.63;;;0.50;;
17520;SDS011;8878;-33.370;-70.552;2023-04-30T09:07:46;1.43;;;0.70;;
17520;SDS011;8878;-33.370;-70.552;2023-04-30T09:10:18;4.37;;;0.60;;
17520;SDS011;8878;-33.370;-70.552;2023-04-30T09:12:58;0.70;;;0.50;;
17520;SDS011;8878;-33.370;-70.552;2023-04-30T09:15:28;1.40;;;0.70;;
17520;SDS011;8878;-33.370;-70.552;2023-04-30T09:18:08;0.67;;;0.57;;
17520;SDS011;8878;-33.370;-70.552;2023-04-30T09:20:53;1.20;;;0.20;;
17520;SDS011;8878;-33.370;-70.552;2023-04-30T09:23:24;0.83;;;0.50;;
17520;SDS011;8878;-33.370;-70.552;2023-04-30T09:25:55;0.37;;;0.37;;
17520;SDS011;8878;-33.370;-70.552;2023-04-30T09:28:25;0.47;;;0.43;;
17520;SDS011;8878;-33.370;-70.552;2023-04-30T09:30:55;0.37;;;0.33;;
17520;SDS011;8878;-33.370;-70.552;2023-04-30T09:33:24;0.33;;;0.33;;
17520;SDS011;8878;-33.370;-70.552;2023-04-30T09:35:55;0.33;;;0.33;;
17520;SDS011;8878;-33.370;-70.552;2023-04-30T09:38:25;1.83;;;0.20;;
17520;SDS011;8878;-33.370;-70.552;2023-04-30T09:40:58;1.10;;;0.30;;
17520;SDS011;8878;-33.370;-70.552;2023-04-30T09:43:28;0.17;;;0.17;;
17520;SDS011;8878;-33.370;-70.552;2023-04-30T09:45:58;0.40;;;0.30;;
17520;SDS011;8878;-33.370;-70.552;2023-04-30T09:48:28;0.10;;;0.10;;
17520;SDS011;8878;-33.370;-70.552;2023-04-30T09:50:57;2.00;;;0.10;;
17520;SDS011;8878;-33.370;-70.552;2023-04-30T09:53:30;3.63;;;0.50;;
17520;SDS011;8878;-33.370;-70.552;2023-04-30T09:56:06;0.23;;;0.17;;
17520;SDS011;8878;-33.370;-70.552;2023-04-30T09:58:39;0.10;;;0.10;;
17520;SDS011;8878;-33.370;-70.552;2023-04-30T10:01:17;0.20;;;0.20;;
17520;SDS011;8878;-33.370;-70.552;2023-04-30T10:03:47;0.43;;;0.10;;
17520;SDS011;8878;-33.370;-70.552;2023-04-30T10:06:17;0.27;;;0.20;;
17520;SDS011;8878;-33.370;-70.552;2023-04-30T10:08:50;0.47;;;0.33;;
17520;SDS011;8878;-33.370;-70.552;2023-04-30T10:11:22;0.53;;;0.27;;
17520;SDS011;8878;-33.370;-70.552;2023-04-30T10:13:57;1.67;;;0.13;;
17520;SDS011;8878;-33.370;-70.552;2023-04-30T10:16:32;0.00;;;0.00;;
17520;SDS011;8878;-33.370;-70.552;2023-04-30T10:19:08;0.17;;;0.17;;
17520;SDS011;8878;-33.370;-70.552;2023-04-30T10:21:41;0.20;;;0.20;;
17520;SDS011;8878;-33.370;-70.552;2023-04-30T10:24:14;2.00;;;0.20;;
17520;SDS011;8878;-33.370;-70.552;2023-04-30T10:26:46;2.87;;;0.40;;
17520;SDS011;8878;-33.370;-70.552;2023-04-30T10:29:16;0.50;;;0.50;;
17520;SDS011;8878;-33.370;-70.552;2023-04-30T10:31:46;1.33;;;0.43;;
17520;SDS011;8878;-33.370;-70.552;2023-04-30T10:34:20;1.07;;;0.73;;
17520;SDS011;8878;-33.370;-70.552;2023-04-30T10:36:58;0.50;;;0.50;;
17520;SDS011;8878;-33.370;-70.552;2023-04-30T10:39:32;0.60;;;0.60;;
17520;SDS011;8878;-33.370;-70.552;2023-04-30T10:42:08;1.33;;;0.90;;
17520;SDS011;8878;-33.370;-70.552;2023-04-30T10:44:38;1.07;;;0.87;;
17520;SDS011;8878;-33.370;-70.552;2023-04-30T10:47:07;0.70;;;0.70;;
17520;SDS011;8878;-33.370;-70.552;2023-04-30T10:49:38;0.97;;;0.87;;
17520;SDS011;8878;-33.370;-70.552;2023-04-30T10:52:13;2.77;;;1.30;;
17520;SDS011;8878;-33.370;-70.552;2023-04-30T10:54:53;1.23;;;0.80;;
17520;SDS011;8878;-33.370;-70.552;2023-04-30T10:57:24;1.07;;;0.77;;
17520;SDS011;8878;-33.370;-70.552;2023-04-30T11:02:47;1.57;;;0.90;;
17520;SDS011;8878;-33.370;-70.552;2023-04-30T11:05:32;0.90;;;0.90;;
17520;SDS011;8878;-33.370;-70.552;2023-04-30T11:08:02;4.53;;;1.00;;
17520;SDS011;8878;-33.370;-70.552;2023-04-30T11:10:32;4.20;;;1.20;;
17520;SDS011;8878;-33.370;-70.552;2023-04-30T11:13:04;0.40;;;0.40;;
17520;SDS011;8878;-33.370;-70.552;2023-04-30T11:15:39;0.87;;;0.80;;
17520;SDS011;8878;-33.370;-70.552;2023-04-30T11:18:09;1.07;;;0.40;;
17520;SDS011;8878;-33.370;-70.552;2023-04-30T11:20:40;0.60;;;0.60;;
17520;SDS011;8878;-33.370;-70.552;2023-04-30T11:23:16;1.57;;;1.00;;
17520;SDS011;8878;-33.370;-70.552;2023-04-30T11:25:52;1.47;;;0.60;;
17520;SDS011;8878;-33.370;-70.552;2023-04-30T11:28:24;0.30;;;0.30;;
17520;SDS011;8878;-33.370;-70.552;2023-04-30T11:30:55;3.40;;;1.07;;
17520;SDS011;8878;-33.370;-70.552;2023-04-30T11:33:26;0.27;;;0.27;;
17520;SDS011;8878;-33.370;-70.552;2023-04-30T11:35:56;0.80;;;0.40;;
17520;SDS011;8878;-33.370;-70.552;2023-04-30T11:38:27;0.33;;;0.33;;
17520;SDS011;8878;-33.370;-70.552;2023-04-30T11:40:57;1.13;;;0.40;;
17520;SDS011;8878;-33.370;-70.552;2023-04-30T11:43:30;0.87;;;0.43;;
17520;SDS011;8878;-33.370;-70.552;2023-04-30T11:46:01;0.23;;;0.23;;
17520;SDS011;8878;-33.370;-70.552;2023-04-30T11:48:36;0.20;;;0.20;;
17520;SDS011;8878;-33.370;-70.552;2023-04-30T11:51:16;0.10;;;0.10;;
17520;SDS011;8878;-33.370;-70.552;2023-04-30T11:53:47;0.40;;;0.40;;
17520;SDS011;8878;-33.370;-70.552;2023-04-30T11:56:18;0.10;;;0.10;;
17520;SDS011;8878;-33.370;-70.552;2023-04-30T11:58:50;0.10;;;0.10;;
17520;SDS011;8878;-33.370;-70.552;2023-04-30T12:01:20;0.20;;;0.03;;
17520;SDS011;8878;-33.370;-70.552;2023-04-30T12:03:54;0.10;;;0.10;;
17520;SDS011;8878;-33.370;-70.552;2023-04-30T12:06:24;0.00;;;0.00;;
17520;SDS011;8878;-33.370;-70.552;2023-04-30T12:08:55;0.10;;;0.10;;
17520;SDS011;8878;-33.370;-70.552;2023-04-30T12:11:26;0.10;;;0.10;;
17520;SDS011;8878;-33.370;-70.552;2023-04-30T12:13:59;0.00;;;0.00;;
17520;SDS011;8878;-33.370;-70.552;2023-04-30T12:16:37;0.27;;;0.10;;
17520;SDS011;8878;-33.370;-70.552;2023-04-30T12:19:09;0.00;;;0.00;;
17520;SDS011;8878;-33.370;-70.552;2023-04-30T12:21:38;0.30;;;0.30;;
17520;SDS011;8878;-33.370;-70.552;2023-04-30T12:24:10;0.20;;;0.20;;
17520;SDS011;8878;-33.370;-70.552;2023-04-30T12:26:39;0.00;;;0.00;;
17520;SDS011;8878;-33.370;-70.552;2023-04-30T12:29:12;0.07;;;0.07;;
17520;SDS011;8878;-33.370;-70.552;2023-04-30T12:31:43;0.20;;;0.20;;
17520;SDS011;8878;-33.370;-70.552;2023-04-30T12:34:13;0.70;;;0.60;;
17520;SDS011;8878;-33.370;-70.552;2023-04-30T12:36:43;0.00;;;0.00;;
17520;SDS011;8878;-33.370;-70.552;2023-04-30T12:39:14;0.00;;;0.00;;
17520;SDS011;8878;-33.370;-70.552;2023-04-30T12:41:44;0.10;;;0.10;;
17520;SDS011;8878;-33.370;-70.552;2023-04-30T12:44:19;0.00;;;0.00;;
17520;SDS011;8878;-33.370;-70.552;2023-04-30T12:46:50;0.07;;;0.07;;
17520;SDS011;8878;-33.370;-70.552;2023-04-30T12:49:22;0.07;;;0.07;;
17520;SDS011;8878;-33.370;-70.552;2023-04-30T12:51:56;0.10;;;0.10;;
17520;SDS011;8878;-33.370;-70.552;2023-04-30T12:54:28;0.10;;;0.10;;
17520;SDS011;8878;-33.370;-70.552;2023-04-30T12:57:00;0.00;;;0.00;;
17520;SDS011;8878;-33.370;-70.552;2023-04-30T12:59:32;0.00;;;0.00;;
17520;SDS011;8878;-33.370;-70.552;2023-04-30T13:02:07;0.00;;;0.00;;
17520;SDS011;8878;-33.370;-70.552;2023-04-30T13:04:37;1.70;;;0.37;;
17520;SDS011;8878;-33.370;-70.552;2023-04-30T13:07:08;0.00;;;0.00;;
17520;SDS011;8878;-33.370;-70.552;2023-04-30T13:09:38;0.40;;;0.10;;
17520;SDS011;8878;-33.370;-70.552;2023-04-30T13:12:08;0.03;;;0.03;;
17520;SDS011;8878;-33.370;-70.552;2023-04-30T13:14:39;0.00;;;0.00;;
17520;SDS011;8878;-33.370;-70.552;2023-04-30T13:17:09;0.00;;;0.00;;
17520;SDS011;8878;-33.370;-70.552;2023-04-30T13:19:39;0.00;;;0.00;;
17520;SDS011;8878;-33.370;-70.552;2023-04-30T13:22:09;0.10;;;0.10;;
17520;SDS011;8878;-33.370;-70.552;2023-04-30T13:24:38;0.00;;;0.00;;
17520;SDS011;8878;-33.370;-70.552;2023-04-30T13:27:07;0.00;;;0.00;;
17520;SDS011;8878;-33.370;-70.552;2023-04-30T13:29:39;0.00;;;0.00;;
17520;SDS011;8878;-33.370;-70.552;2023-04-30T13:32:09;4.60;;;0.20;;
17520;SDS011;8878;-33.370;-70.552;2023-04-30T13:34:39;0.10;;;0.10;;
17520;SDS011;8878;-33.370;-70.552;2023-04-30T13:37:09;0.00;;;0.00;;
17520;SDS011;8878;-33.370;-70.552;2023-04-30T13:39:39;0.10;;;0.10;;
17520;SDS011;8878;-33.370;-70.552;2023-04-30T13:42:08;0.10;;;0.10;;
17520;SDS011;8878;-33.370;-70.552;2023-04-30T13:44:40;0.00;;;0.00;;
17520;SDS011;8878;-33.370;-70.552;2023-04-30T13:47:10;0.30;;;0.27;;
17520;SDS011;8878;-33.370;-70.552;2023-04-30T13:49:40;0.00;;;0.00;;
17520;SDS011;8878;-33.370;-70.552;2023-04-30T13:52:12;0.00;;;0.00;;
17520;SDS011;8878;-33.370;-70.552;2023-04-30T13:54:42;0.73;;;0.20;;
17520;SDS011;8878;-33.370;-70.552;2023-04-30T13:57:11;0.10;;;0.10;;
17520;SDS011;8878;-33.370;-70.552;2023-04-30T13:59:42;0.00;;;0.00;;
17520;SDS011;8878;-33.370;-70.552;2023-04-30T14:02:12;0.10;;;0.10;;
17520;SDS011;8878;-33.370;-70.552;2023-04-30T14:04:42;0.00;;;0.00;;
17520;SDS011;8878;-33.370;-70.552;2023-04-30T14:07:11;0.00;;;0.00;;
17520;SDS011;8878;-33.370;-70.552;2023-04-30T14:09:41;0.10;;;0.00;;
17520;SDS011;8878;-33.370;-70.552;2023-04-30T14:12:10;0.00;;;0.00;;
17520;SDS011;8878;-33.370;-70.552;2023-04-30T14:14:40;0.10;;;0.10;;
17520;SDS011;8878;-33.370;-70.552;2023-04-30T14:17:11;0.10;;;0.10;;
17520;SDS011;8878;-33.370;-70.552;2023-04-30T14:19:40;0.10;;;0.10;;
17520;SDS011;8878;-33.370;-70.552;2023-04-30T14:22:10;0.10;;;0.10;;
17520;SDS011;8878;-33.370;-70.552;2023-04-30T14:24:39;0.00;;;0.00;;
17520;SDS011;8878;-33.370;-70.552;2023-04-30T14:27:08;0.00;;;0.00;;
17520;SDS011;8878;-33.370;-70.552;2023-04-30T14:29:38;0.00;;;0.00;;
17520;SDS011;8878;-33.370;-70.552;2023-04-30T14:32:09;0.00;;;0.00;;
17520;SDS011;8878;-33.370;-70.552;2023-04-30T14:34:40;2.10;;;0.17;;
17520;SDS011;8878;-33.370;-70.552;2023-04-30T14:37:10;0.10;;;0.00;;
17520;SDS011;8878;-33.370;-70.552;2023-04-30T14:39:40;0.00;;;0.00;;
17520;SDS011;8878;-33.370;-70.552;2023-04-30T14:42:10;0.00;;;0.00;;
17520;SDS011;8878;-33.370;-70.552;2023-04-30T14:44:39;0.10;;;0.10;;
17520;SDS011;8878;-33.370;-70.552;2023-04-30T14:47:10;0.10;;;0.10;;